sensor_id;sensor_type;location;lat;lon;timestamp;P1;durP1;ratioP1;P2;durP2;ratioP2
30048;SDS011;16879;50.852;15.602;2023-05-19T00:02:02;9.55;;;4.25;;
30048;SDS011;16879;50.852;15.602;2023-05-19T00:04:30;5.97;;;3.65;;
30048;SDS011;16879;50.852;15.602;2023-05-19T00:06:57;6.38;;;4.20;;
30048;SDS011;16879;50.852;15.602;2023-05-19T00:09:25;4.53;;;3.13;;
30048;SDS011;16879;50.852;15.602;2023-05-19T00:11:51;7.85;;;3.85;;
30048;SDS011;16879;50.852;15.602;2023-05-19T00:14:17;7.10;;;3.42;;
30048;SDS011;16879;50.852;15.602;2023-05-19T00:16:43;9.23;;;3.75;;
30048;SDS011;16879;50.852;15.602;2023-05-19T00:19:09;8.52;;;3.72;;
30048;SDS011;16879;50.852;15.602;2023-05-19T00:21:35;5.15;;;3.03;;
30048;SDS011;16879;50.852;15.602;2023-05-19T00:24:05;8.63;;;3.97;;
30048;SDS011;16879;50.852;15.602;2023-05-19T00:26:31;8.80;;;4.32;;
30048;SDS011;16879;50.852;15.602;2023-05-19T00:28:57;7.45;;;4.00;;
30048;SDS011;16879;50.852;15.602;2023-05-19T00:31:23;5.35;;;3.25;;
30048;SDS011;16879;50.852;15.602;2023-05-19T00:33:50;7.95;;;4.18;;
30048;SDS011;16879;50.852;15.602;2023-05-19T00:36:16;5.80;;;3.78;;
30048;SDS011;16879;50.852;15.602;2023-05-19T00:38:42;7.78;;;4.07;;
30048;SDS011;16879;50.852;15.602;2023-05-19T00:41:08;10.52;;;5.35;;
30048;SDS011;16879;50.852;15.602;2023-05-19T00:43:35;7.82;;;3.90;;
30048;SDS011;16879;50.852;15.602;2023-05-19T00:46:01;7.43;;;3.65;;
30048;SDS011;16879;50.852;15.602;2023-05-19T00:48:27;5.97;;;4.47;;
30048;SDS011;16879;50.852;15.602;2023-05-19T00:50:54;7.65;;;5.07;;
30048;SDS011;16879;50.852;15.602;2023-05-19T00:53:26;6.15;;;4.18;;
30048;SDS011;16879;50.852;15.602;2023-05-19T00:55:52;6.82;;;4.45;;
30048;SDS011;16879;50.852;15.602;2023-05-19T00:58:18;9.25;;;5.47;;
30048;SDS011;16879;50.852;15.602;2023-05-19T01:00:44;6.70;;;4.10;;
30048;SDS011;16879;50.852;15.602;2023-05-19T01:03:10;8.18;;;4.93;;
30048;SDS011;16879;50.852;15.602;2023-05-19T01:05:40;7.68;;;4.32;;
30048;SDS011;16879;50.852;15.602;2023-05-19T01:08:06;9.65;;;4.95;;
30048;SDS011;16879;50.852;15.602;2023-05-19T01:10:33;8.52;;;4.18;;
30048;SDS011;16879;50.852;15.602;2023-05-19T01:12:59;7.07;;;5.35;;
30048;SDS011;16879;50.852;15.602;2023-05-19T01:15:29;8.98;;;4.85;;
30048;SDS011;16879;50.852;15.602;2023-05-19T01:18:04;8.40;;;5.05;;
30048;SDS011;16879;50.852;15.602;2023-05-19T01:20:43;7.10;;;4.85;;
30048;SDS011;16879;50.852;15.602;2023-05-19T01:23:33;7.85;;;5.40;;
30048;SDS011;16879;50.852;15.602;2023-05-19T01:26:56;9.27;;;4.80;;
30048;SDS011;16879;50.852;15.602;2023-05-19T01:32:35;12.85;;;5.78;;
30048;SDS011;16879;50.852;15.602;2023-05-19T01:35:05;8.20;;;5.30;;
30048;SDS011;16879;50.852;15.602;2023-05-19T01:37:33;8.18;;;4.60;;
30048;SDS011;16879;50.852;15.602;2023-05-19T01:39:59;8.45;;;5.22;;
30048;SDS011;16879;50.852;15.602;2023-05-19T01:42:25;8.70;;;4.90;;
30048;SDS011;16879;50.852;15.602;2023-05-19T01:44:52;8.68;;;5.15;;
30048;SDS011;16879;50.852;15.602;2023-05-19T01:47:19;7.85;;;4.22;;
30048;SDS011;16879;50.852;15.602;2023-05-19T01:49:45;8.05;;;4.22;;
30048;SDS011;16879;50.852;15.602;2023-05-19T01:52:11;5.80;;;3.85;;
30048;SDS011;16879;50.852;15.602;2023-05-19T01:54:38;7.00;;;3.45;;
30048;SDS011;16879;50.852;15.602;2023-05-19T01:57:23;8.35;;;4.22;;
30048;SDS011;16879;50.852;15.602;2023-05-19T01:59:59;6.95;;;4.00;;
30048;SDS011;16879;50.852;15.602;2023-05-19T02:02:47;5.55;;;3.38;;
30048;SDS011;16879;50.852;15.602;2023-05-19T02:05:44;4.32;;;3.63;;
30048;SDS011;16879;50.852;15.602;2023-05-19T02:10:42;3.60;;;2.70;;
30048;SDS011;16879;50.852;15.602;2023-05-19T02:13:12;6.15;;;3.38;;
30048;SDS011;16879;50.852;15.602;2023-05-19T02:15:40;3.65;;;3.05;;
30048;SDS011;16879;50.852;15.602;2023-05-19T02:18:08;5.40;;;3.95;;
30048;SDS011;16879;50.852;15.602;2023-05-19T02:20:38;7.22;;;4.03;;
30048;SDS011;16879;50.852;15.602;2023-05-19T02:23:04;4.60;;;3.03;;
30048;SDS011;16879;50.852;15.602;2023-05-19T02:25:31;4.93;;;2.88;;
30048;SDS011;16879;50.852;15.602;2023-05-19T02:27:57;4.35;;;2.50;;
30048;SDS011;16879;50.852;15.602;2023-05-19T02:30:23;8.32;;;3.33;;
30048;SDS011;16879;50.852;15.602;2023-05-19T02:32:49;4.10;;;2.58;;
30048;SDS011;16879;50.852;15.602;2023-05-19T02:35:18;5.32;;;2.83;;
30048;SDS011;16879;50.852;15.602;2023-05-19T02:37:44;4.15;;;2.42;;
30048;SDS011;16879;50.852;15.602;2023-05-19T02:40:10;9.13;;;2.95;;
30048;SDS011;16879;50.852;15.602;2023-05-19T02:42:36;7.88;;;3.50;;
30048;SDS011;16879;50.852;15.602;2023-05-19T02:45:03;6.57;;;3.28;;
30048;SDS011;16879;50.852;15.602;2023-05-19T02:47:29;5.28;;;3.88;;
30048;SDS011;16879;50.852;15.602;2023-05-19T02:49:55;4.45;;;3.35;;
30048;SDS011;16879;50.852;15.602;2023-05-19T02:52:21;4.43;;;3.30;;
30048;SDS011;16879;50.852;15.602;2023-05-19T02:54:47;5.00;;;2.70;;
30048;SDS011;16879;50.852;15.602;2023-05-19T02:57:13;4.07;;;3.05;;
30048;SDS011;16879;50.852;15.602;2023-05-19T02:59:39;5.18;;;2.85;;
30048;SDS011;16879;50.852;15.602;2023-05-19T03:02:06;5.90;;;3.72;;
30048;SDS011;16879;50.852;15.602;2023-05-19T03:04:32;7.18;;;3.90;;
30048;SDS011;16879;50.852;15.602;2023-05-19T03:07:05;6.67;;;4.53;;
30048;SDS011;16879;50.852;15.602;2023-05-19T03:09:34;6.72;;;3.28;;
30048;SDS011;16879;50.852;15.602;2023-05-19T03:12:03;6.72;;;3.40;;
30048;SDS011;16879;50.852;15.602;2023-05-19T03:14:31;6.35;;;3.20;;
30048;SDS011;16879;50.852;15.602;2023-05-19T03:16:58;6.15;;;3.95;;
30048;SDS011;16879;50.852;15.602;2023-05-19T03:19:25;5.75;;;3.25;;
30048;SDS011;16879;50.852;15.602;2023-05-19T03:21:51;5.78;;;3.38;;
30048;SDS011;16879;50.852;15.602;2023-05-19T03:24:18;4.63;;;3.50;;
30048;SDS011;16879;50.852;15.602;2023-05-19T03:26:43;8.65;;;4.50;;
30048;SDS011;16879;50.852;15.602;2023-05-19T03:29:10;4.22;;;3.15;;
30048;SDS011;16879;50.852;15.602;2023-05-19T03:31:36;5.20;;;4.20;;
30048;SDS011;16879;50.852;15.602;2023-05-19T03:34:02;9.05;;;5.15;;
30048;SDS011;16879;50.852;15.602;2023-05-19T03:36:28;6.78;;;4.28;;
30048;SDS011;16879;50.852;15.602;2023-05-19T03:39:06;7.97;;;5.03;;
30048;SDS011;16879;50.852;15.602;2023-05-19T03:41:32;5.60;;;3.85;;
30048;SDS011;16879;50.852;15.602;2023-05-19T03:43:58;6.65;;;4.30;;
30048;SDS011;16879;50.852;15.602;2023-05-19T03:46:24;9.25;;;5.18;;
30048;SDS011;16879;50.852;15.602;2023-05-19T03:48:50;5.97;;;3.75;;
30048;SDS011;16879;50.852;15.602;2023-05-19T03:51:16;3.92;;;3.30;;
30048;SDS011;16879;50.852;15.602;2023-05-19T03:53:41;4.32;;;3.17;;
30048;SDS011;16879;50.852;15.602;2023-05-19T03:56:09;5.43;;;3.42;;
30048;SDS011;16879;50.852;15.602;2023-05-19T03:58:38;8.43;;;3.80;;
30048;SDS011;16879;50.852;15.602;2023-05-19T04:01:07;4.40;;;2.88;;
30048;SDS011;16879;50.852;15.602;2023-05-19T04:03:33;3.70;;;2.65;;
30048;SDS011;16879;50.852;15.602;2023-05-19T04:06:01;5.13;;;2.88;;
30048;SDS011;16879;50.852;15.602;2023-05-19T04:08:27;3.53;;;3.00;;
30048;SDS011;16879;50.852;15.602;2023-05-19T04:10:54;6.57;;;2.90;;
30048;SDS011;16879;50.852;15.602;2023-05-19T04:13:20;4.60;;;3.83;;
30048;SDS011;16879;50.852;15.602;2023-05-19T04:15:47;3.38;;;3.08;;
30048;SDS011;16879;50.852;15.602;2023-05-19T04:18:12;6.38;;;2.85;;
30048;SDS011;16879;50.852;15.602;2023-05-19T04:20:41;2.83;;;2.42;;
30048;SDS011;16879;50.852;15.602;2023-05-19T04:23:07;4.88;;;2.83;;
30048;SDS011;16879;50.852;15.602;2023-05-19T04:25:34;2.97;;;2.47;;
30048;SDS011;16879;50.852;15.602;2023-05-19T04:28:01;6.50;;;3.45;;
30048;SDS011;16879;50.852;15.602;2023-05-19T04:30:27;6.15;;;4.40;;
30048;SDS011;16879;50.852;15.602;2023-05-19T04:32:53;4.82;;;3.00;;
30048;SDS011;16879;50.852;15.602;2023-05-19T04:35:22;4.80;;;3.75;;
30048;SDS011;16879;50.852;15.602;2023-05-19T04:37:48;8.70;;;4.38;;
30048;SDS011;16879;50.852;15.602;2023-05-19T04:40:14;8.23;;;4.30;;
30048;SDS011;16879;50.852;15.602;2023-05-19T04:42:41;10.70;;;4.00;;
30048;SDS011;16879;50.852;15.602;2023-05-19T04:45:09;3.80;;;2.67;;
30048;SDS011;16879;50.852;15.602;2023-05-19T04:47:39;7.38;;;3.65;;
30048;SDS011;16879;50.852;15.602;2023-05-19T04:50:05;5.63;;;3.22;;
30048;SDS011;16879;50.852;15.602;2023-05-19T04:52:33;4.22;;;2.92;;
30048;SDS011;16879;50.852;15.602;2023-05-19T04:55:00;7.40;;;3.28;;
30048;SDS011;16879;50.852;15.602;2023-05-19T04:57:26;4.93;;;3.58;;
30048;SDS011;16879;50.852;15.602;2023-05-19T04:59:52;6.45;;;4.13;;
30048;SDS011;16879;50.852;15.602;2023-05-19T05:02:24;4.78;;;3.88;;
30048;SDS011;16879;50.852;15.602;2023-05-19T05:04:51;5.65;;;3.97;;
30048;SDS011;16879;50.852;15.602;2023-05-19T05:07:18;5.38;;;4.35;;
30048;SDS011;16879;50.852;15.602;2023-05-19T05:09:46;5.53;;;4.60;;
30048;SDS011;16879;50.852;15.602;2023-05-19T05:12:13;6.35;;;4.75;;
30048;SDS011;16879;50.852;15.602;2023-05-19T05:14:39;9.95;;;5.32;;
30048;SDS011;16879;50.852;15.602;2023-05-19T05:17:06;7.68;;;5.80;;
30048;SDS011;16879;50.852;15.602;2023-05-19T05:19:33;9.57;;;5.47;;
30048;SDS011;16879;50.852;15.602;2023-05-19T05:22:00;7.20;;;4.85;;
30048;SDS011;16879;50.852;15.602;2023-05-19T05:24:26;7.60;;;5.68;;
30048;SDS011;16879;50.852;15.602;2023-05-19T05:26:52;10.05;;;7.00;;
30048;SDS011;16879;50.852;15.602;2023-05-19T05:29:18;10.25;;;6.35;;
30048;SDS011;16879;50.852;15.602;2023-05-19T05:31:44;8.57;;;6.45;;
30048;SDS011;16879;50.852;15.602;2023-05-19T05:34:10;14.15;;;7.63;;
30048;SDS011;16879;50.852;15.602;2023-05-19T05:36:36;12.38;;;7.97;;
30048;SDS011;16879;50.852;15.602;2023-05-19T05:39:05;10.38;;;5.72;;
30048;SDS011;16879;50.852;15.602;2023-05-19T05:41:32;7.53;;;6.13;;
30048;SDS011;16879;50.852;15.602;2023-05-19T05:44:01;8.88;;;4.97;;
30048;SDS011;16879;50.852;15.602;2023-05-19T05:46:27;8.68;;;5.55;;
30048;SDS011;16879;50.852;15.602;2023-05-19T05:48:53;17.60;;;6.72;;
30048;SDS011;16879;50.852;15.602;2023-05-19T05:51:22;6.65;;;5.03;;
30048;SDS011;16879;50.852;15.602;2023-05-19T05:53:52;15.48;;;6.20;;
30048;SDS011;16879;50.852;15.602;2023-05-19T05:56:19;8.07;;;5.55;;
30048;SDS011;16879;50.852;15.602;2023-05-19T05:58:46;9.77;;;5.20;;
30048;SDS011;16879;50.852;15.602;2023-05-19T06:01:13;9.05;;;5.50;;
30048;SDS011;16879;50.852;15.602;2023-05-19T06:03:41;7.43;;;5.07;;
30048;SDS011;16879;50.852;15.602;2023-05-19T06:06:12;13.10;;;6.47;;
30048;SDS011;16879;50.852;15.602;2023-05-19T06:08:38;6.78;;;4.95;;
30048;SDS011;16879;50.852;15.602;2023-05-19T06:11:04;9.30;;;6.13;;
30048;SDS011;16879;50.852;15.602;2023-05-19T06:13:36;9.00;;;6.57;;
30048;SDS011;16879;50.852;15.602;2023-05-19T06:16:03;10.13;;;5.88;;
30048;SDS011;16879;50.852;15.602;2023-05-19T06:18:30;8.80;;;5.90;;
30048;SDS011;16879;50.852;15.602;2023-05-19T06:20:56;13.63;;;6.70;;
30048;SDS011;16879;50.852;15.602;2023-05-19T06:23:22;8.75;;;6.40;;
30048;SDS011;16879;50.852;15.602;2023-05-19T06:25:50;11.02;;;6.50;;
30048;SDS011;16879;50.852;15.602;2023-05-19T06:28:17;9.10;;;7.20;;
30048;SDS011;16879;50.852;15.602;2023-05-19T06:30:42;12.13;;;5.78;;
30048;SDS011;16879;50.852;15.602;2023-05-19T06:33:08;8.98;;;4.95;;
30048;SDS011;16879;50.852;15.602;2023-05-19T06:35:35;9.95;;;6.20;;
30048;SDS011;16879;50.852;15.602;2023-05-19T06:38:02;8.45;;;5.35;;
30048;SDS011;16879;50.852;15.602;2023-05-19T06:40:28;12.20;;;4.95;;
30048;SDS011;16879;50.852;15.602;2023-05-19T06:42:54;9.48;;;5.60;;
30048;SDS011;16879;50.852;15.602;2023-05-19T06:45:20;5.78;;;4.32;;
30048;SDS011;16879;50.852;15.602;2023-05-19T06:47:46;10.35;;;5.10;;
30048;SDS011;16879;50.852;15.602;2023-05-19T06:50:13;11.27;;;5.57;;
30048;SDS011;16879;50.852;15.602;2023-05-19T06:52:39;10.30;;;5.05;;
30048;SDS011;16879;50.852;15.602;2023-05-19T06:55:06;7.68;;;3.67;;
30048;SDS011;16879;50.852;15.602;2023-05-19T06:57:32;8.45;;;4.72;;
30048;SDS011;16879;50.852;15.602;2023-05-19T06:59:58;8.60;;;4.55;;
30048;SDS011;16879;50.852;15.602;2023-05-19T07:02:24;6.50;;;4.05;;
30048;SDS011;16879;50.852;15.602;2023-05-19T07:04:50;4.95;;;2.80;;
30048;SDS011;16879;50.852;15.602;2023-05-19T07:07:18;5.80;;;3.67;;
30048;SDS011;16879;50.852;15.602;2023-05-19T07:09:44;7.25;;;3.92;;
30048;SDS011;16879;50.852;15.602;2023-05-19T07:12:10;6.13;;;3.65;;
30048;SDS011;16879;50.852;15.602;2023-05-19T07:14:36;5.40;;;3.33;;
30048;SDS011;16879;50.852;15.602;2023-05-19T07:17:02;7.13;;;4.50;;
30048;SDS011;16879;50.852;15.602;2023-05-19T07:19:29;6.97;;;4.30;;
30048;SDS011;16879;50.852;15.602;2023-05-19T07:21:55;9.50;;;4.47;;
30048;SDS011;16879;50.852;15.602;2023-05-19T07:24:23;8.50;;;4.50;;
30048;SDS011;16879;50.852;15.602;2023-05-19T07:26:51;9.32;;;4.45;;
30048;SDS011;16879;50.852;15.602;2023-05-19T07:29:17;13.18;;;5.57;;
30048;SDS011;16879;50.852;15.602;2023-05-19T07:31:43;9.75;;;4.07;;
30048;SDS011;16879;50.852;15.602;2023-05-19T07:34:10;7.57;;;4.43;;
30048;SDS011;16879;50.852;15.602;2023-05-19T07:36:36;5.65;;;3.53;;
30048;SDS011;16879;50.852;15.602;2023-05-19T07:39:02;4.50;;;3.70;;
30048;SDS011;16879;50.852;15.602;2023-05-19T07:41:28;14.40;;;7.10;;
30048;SDS011;16879;50.852;15.602;2023-05-19T07:43:55;10.55;;;5.05;;
30048;SDS011;16879;50.852;15.602;2023-05-19T07:46:21;9.02;;;5.82;;
30048;SDS011;16879;50.852;15.602;2023-05-19T07:48:47;8.30;;;5.70;;
30048;SDS011;16879;50.852;15.602;2023-05-19T07:51:13;8.40;;;5.07;;
30048;SDS011;16879;50.852;15.602;2023-05-19T07:53:40;11.10;;;5.57;;
30048;SDS011;16879;50.852;15.602;2023-05-19T07:56:06;8.13;;;4.57;;
30048;SDS011;16879;50.852;15.602;2023-05-19T07:58:32;9.35;;;5.35;;
30048;SDS011;16879;50.852;15.602;2023-05-19T08:00:58;8.77;;;4.97;;
30048;SDS011;16879;50.852;15.602;2023-05-19T08:03:25;8.02;;;4.68;;
30048;SDS011;16879;50.852;15.602;2023-05-19T08:05:51;14.23;;;5.85;;
30048;SDS011;16879;50.852;15.602;2023-05-19T08:08:17;10.80;;;4.68;;
30048;SDS011;16879;50.852;15.602;2023-05-19T08:10:44;12.27;;;5.63;;
30048;SDS011;16879;50.852;15.602;2023-05-19T08:13:10;5.70;;;4.28;;
30048;SDS011;16879;50.852;15.602;2023-05-19T08:15:36;9.10;;;5.00;;
30048;SDS011;16879;50.852;15.602;2023-05-19T08:18:02;9.43;;;4.45;;
30048;SDS011;16879;50.852;15.602;2023-05-19T08:20:29;10.05;;;5.10;;
30048;SDS011;16879;50.852;15.602;2023-05-19T08:22:55;10.45;;;4.80;;
30048;SDS011;16879;50.852;15.602;2023-05-19T08:25:21;9.13;;;5.55;;
30048;SDS011;16879;50.852;15.602;2023-05-19T08:27:47;13.43;;;6.28;;
30048;SDS011;16879;50.852;15.602;2023-05-19T08:30:13;8.98;;;5.75;;
30048;SDS011;16879;50.852;15.602;2023-05-19T08:32:40;10.98;;;6.35;;
30048;SDS011;16879;50.852;15.602;2023-05-19T08:35:06;11.70;;;6.57;;
30048;SDS011;16879;50.852;15.602;2023-05-19T08:37:33;10.10;;;5.57;;
30048;SDS011;16879;50.852;15.602;2023-05-19T08:40:01;13.13;;;6.20;;
30048;SDS011;16879;50.852;15.602;2023-05-19T08:42:29;13.88;;;6.80;;
30048;SDS011;16879;50.852;15.602;2023-05-19T08:44:57;12.98;;;6.20;;
30048;SDS011;16879;50.852;15.602;2023-05-19T08:47:23;10.13;;;5.90;;
30048;SDS011;16879;50.852;15.602;2023-05-19T08:49:52;10.15;;;6.53;;
30048;SDS011;16879;50.852;15.602;2023-05-19T08:55:07;12.48;;;6.88;;
30048;SDS011;16879;50.852;15.602;2023-05-19T08:57:35;11.13;;;5.55;;
30048;SDS011;16879;50.852;15.602;2023-05-19T09:00:02;8.07;;;5.78;;
30048;SDS011;16879;50.852;15.602;2023-05-19T09:02:36;10.38;;;5.70;;
30048;SDS011;16879;50.852;15.602;2023-05-19T09:05:03;10.13;;;6.55;;
30048;SDS011;16879;50.852;15.602;2023-05-19T09:07:30;8.35;;;7.07;;
30048;SDS011;16879;50.852;15.602;2023-05-19T09:09:59;12.80;;;7.78;;
30048;SDS011;16879;50.852;15.602;2023-05-19T09:12:26;10.32;;;6.88;;
30048;SDS011;16879;50.852;15.602;2023-05-19T09:14:52;12.75;;;7.93;;
30048;SDS011;16879;50.852;15.602;2023-05-19T09:17:18;12.98;;;6.72;;
30048;SDS011;16879;50.852;15.602;2023-05-19T09:19:48;8.07;;;6.70;;
30048;SDS011;16879;50.852;15.602;2023-05-19T09:22:14;8.70;;;6.90;;
30048;SDS011;16879;50.852;15.602;2023-05-19T09:24:43;9.77;;;7.13;;
30048;SDS011;16879;50.852;15.602;2023-05-19T09:27:10;11.90;;;7.47;;
30048;SDS011;16879;50.852;15.602;2023-05-19T09:29:40;12.15;;;8.02;;
30048;SDS011;16879;50.852;15.602;2023-05-19T09:32:07;11.43;;;6.93;;
30048;SDS011;16879;50.852;15.602;2023-05-19T09:34:33;10.45;;;8.35;;
30048;SDS011;16879;50.852;15.602;2023-05-19T09:37:00;15.00;;;8.40;;
30048;SDS011;16879;50.852;15.602;2023-05-19T09:39:26;11.45;;;8.45;;
30048;SDS011;16879;50.852;15.602;2023-05-19T09:41:53;11.70;;;8.20;;
30048;SDS011;16879;50.852;15.602;2023-05-19T09:44:23;11.43;;;8.27;;
30048;SDS011;16879;50.852;15.602;2023-05-19T09:46:57;16.65;;;9.70;;
30048;SDS011;16879;50.852;15.602;2023-05-19T09:49:24;13.05;;;8.23;;
30048;SDS011;16879;50.852;15.602;2023-05-19T09:51:53;14.18;;;9.65;;
30048;SDS011;16879;50.852;15.602;2023-05-19T09:54:21;12.73;;;8.85;;
30048;SDS011;16879;50.852;15.602;2023-05-19T09:56:57;11.70;;;8.27;;
30048;SDS011;16879;50.852;15.602;2023-05-19T09:59:24;12.55;;;10.45;;
30048;SDS011;16879;50.852;15.602;2023-05-19T10:01:54;11.70;;;9.07;;
30048;SDS011;16879;50.852;15.602;2023-05-19T10:04:25;12.13;;;8.70;;
30048;SDS011;16879;50.852;15.602;2023-05-19T10:06:55;11.20;;;8.45;;
30048;SDS011;16879;50.852;15.602;2023-05-19T10:09:26;13.48;;;8.93;;
30048;SDS011;16879;50.852;15.602;2023-05-19T10:11:56;14.68;;;10.00;;
30048;SDS011;16879;50.852;15.602;2023-05-19T10:14:23;12.10;;;8.93;;
30048;SDS011;16879;50.852;15.602;2023-05-19T10:16:50;14.32;;;9.02;;
30048;SDS011;16879;50.852;15.602;2023-05-19T10:19:21;12.52;;;9.02;;
30048;SDS011;16879;50.852;15.602;2023-05-19T10:21:48;11.23;;;8.20;;
30048;SDS011;16879;50.852;15.602;2023-05-19T10:24:15;9.95;;;8.23;;
30048;SDS011;16879;50.852;15.602;2023-05-19T10:26:42;11.38;;;8.82;;
30048;SDS011;16879;50.852;15.602;2023-05-19T10:29:24;13.27;;;8.60;;
30048;SDS011;16879;50.852;15.602;2023-05-19T10:31:52;13.98;;;9.77;;
30048;SDS011;16879;50.852;15.602;2023-05-19T10:36:58;12.63;;;9.25;;
30048;SDS011;16879;50.852;15.602;2023-05-19T10:39:28;9.43;;;7.10;;
30048;SDS011;16879;50.852;15.602;2023-05-19T10:44:42;11.52;;;8.32;;
30048;SDS011;16879;50.852;15.602;2023-05-19T10:47:13;10.68;;;6.68;;
30048;SDS011;16879;50.852;15.602;2023-05-19T10:49:39;11.93;;;8.45;;
30048;SDS011;16879;50.852;15.602;2023-05-19T10:52:17;11.00;;;7.68;;
30048;SDS011;16879;50.852;15.602;2023-05-19T10:54:45;11.82;;;7.93;;
30048;SDS011;16879;50.852;15.602;2023-05-19T10:57:15;11.70;;;8.80;;
30048;SDS011;16879;50.852;15.602;2023-05-19T10:59:42;9.30;;;7.80;;
30048;SDS011;16879;50.852;15.602;2023-05-19T11:02:08;12.88;;;9.68;;
30048;SDS011;16879;50.852;15.602;2023-05-19T11:04:38;12.75;;;8.15;;
30048;SDS011;16879;50.852;15.602;2023-05-19T11:07:21;10.30;;;7.43;;
30048;SDS011;16879;50.852;15.602;2023-05-19T11:09:52;11.60;;;8.88;;
30048;SDS011;16879;50.852;15.602;2023-05-19T11:12:18;13.07;;;9.15;;
30048;SDS011;16879;50.852;15.602;2023-05-19T11:14:45;14.63;;;9.27;;
30048;SDS011;16879;50.852;15.602;2023-05-19T11:17:13;13.55;;;7.80;;
30048;SDS011;16879;50.852;15.602;2023-05-19T11:19:50;16.13;;;9.95;;
30048;SDS011;16879;50.852;15.602;2023-05-19T11:22:21;12.60;;;10.52;;
30048;SDS011;16879;50.852;15.602;2023-05-19T11:24:58;12.65;;;9.82;;
30048;SDS011;16879;50.852;15.602;2023-05-19T11:29:55;14.68;;;9.75;;
30048;SDS011;16879;50.852;15.602;2023-05-19T11:32:32;12.23;;;9.38;;
30048;SDS011;16879;50.852;15.602;2023-05-19T11:35:00;13.43;;;10.23;;
30048;SDS011;16879;50.852;15.602;2023-05-19T11:37:26;15.32;;;10.57;;
30048;SDS011;16879;50.852;15.602;2023-05-19T11:39:53;14.57;;;10.07;;
30048;SDS011;16879;50.852;15.602;2023-05-19T11:42:19;15.60;;;10.38;;
30048;SDS011;16879;50.852;15.602;2023-05-19T11:44:45;16.15;;;11.18;;
30048;SDS011;16879;50.852;15.602;2023-05-19T11:47:12;13.18;;;9.82;;
30048;SDS011;16879;50.852;15.602;2023-05-19T11:49:41;18.45;;;10.55;;
30048;SDS011;16879;50.852;15.602;2023-05-19T11:52:08;14.18;;;10.35;;
30048;SDS011;16879;50.852;15.602;2023-05-19T11:54:34;20.77;;;13.50;;
30048;SDS011;16879;50.852;15.602;2023-05-19T11:57:02;15.55;;;11.27;;
30048;SDS011;16879;50.852;15.602;2023-05-19T11:59:37;12.65;;;9.70;;
30048;SDS011;16879;50.852;15.602;2023-05-19T12:04:37;10.27;;;9.07;;
30048;SDS011;16879;50.852;15.602;2023-05-19T12:07:03;12.27;;;9.50;;
30048;SDS011;16879;50.852;15.602;2023-05-19T12:09:30;12.63;;;9.65;;
30048;SDS011;16879;50.852;15.602;2023-05-19T12:11:56;10.98;;;8.82;;
30048;SDS011;16879;50.852;15.602;2023-05-19T12:14:25;11.88;;;9.63;;
30048;SDS011;16879;50.852;15.602;2023-05-19T12:16:53;11.55;;;8.60;;
30048;SDS011;16879;50.852;15.602;2023-05-19T12:19:21;11.55;;;9.52;;
30048;SDS011;16879;50.852;15.602;2023-05-19T12:21:48;10.70;;;8.77;;
30048;SDS011;16879;50.852;15.602;2023-05-19T12:24:14;13.75;;;7.60;;
30048;SDS011;16879;50.852;15.602;2023-05-19T12:26:40;14.80;;;10.40;;
30048;SDS011;16879;50.852;15.602;2023-05-19T12:29:07;12.93;;;9.07;;
30048;SDS011;16879;50.852;15.602;2023-05-19T12:31:33;10.90;;;8.68;;
30048;SDS011;16879;50.852;15.602;2023-05-19T12:33:59;12.63;;;9.07;;
30048;SDS011;16879;50.852;15.602;2023-05-19T12:36:26;9.73;;;7.45;;
30048;SDS011;16879;50.852;15.602;2023-05-19T12:38:56;10.50;;;8.55;;
30048;SDS011;16879;50.852;15.602;2023-05-19T12:41:25;9.30;;;8.23;;
30048;SDS011;16879;50.852;15.602;2023-05-19T12:43:52;11.75;;;8.80;;
30048;SDS011;16879;50.852;15.602;2023-05-19T12:46:19;11.63;;;9.63;;
30048;SDS011;16879;50.852;15.602;2023-05-19T12:48:46;9.57;;;7.93;;
30048;SDS011;16879;50.852;15.602;2023-05-19T12:51:16;13.52;;;8.05;;
30048;SDS011;16879;50.852;15.602;2023-05-19T12:53:42;10.00;;;8.02;;
30048;SDS011;16879;50.852;15.602;2023-05-19T12:56:10;10.77;;;8.35;;
30048;SDS011;16879;50.852;15.602;2023-05-19T12:58:37;12.40;;;8.18;;
30048;SDS011;16879;50.852;15.602;2023-05-19T13:01:03;10.80;;;8.88;;
30048;SDS011;16879;50.852;15.602;2023-05-19T13:03:29;7.93;;;7.05;;
30048;SDS011;16879;50.852;15.602;2023-05-19T13:05:56;11.55;;;8.80;;
30048;SDS011;16879;50.852;15.602;2023-05-19T13:08:23;13.90;;;9.73;;
30048;SDS011;16879;50.852;15.602;2023-05-19T13:10:49;10.18;;;7.97;;
30048;SDS011;16879;50.852;15.602;2023-05-19T13:13:16;9.98;;;7.38;;
30048;SDS011;16879;50.852;15.602;2023-05-19T13:15:43;13.02;;;8.23;;
30048;SDS011;16879;50.852;15.602;2023-05-19T13:18:11;9.77;;;7.82;;
30048;SDS011;16879;50.852;15.602;2023-05-19T13:20:38;8.52;;;7.57;;
30048;SDS011;16879;50.852;15.602;2023-05-19T13:23:06;12.68;;;8.38;;
30048;SDS011;16879;50.852;15.602;2023-05-19T13:25:32;10.68;;;8.93;;
30048;SDS011;16879;50.852;15.602;2023-05-19T13:27:59;10.40;;;9.27;;
30048;SDS011;16879;50.852;15.602;2023-05-19T13:30:29;10.60;;;9.10;;
30048;SDS011;16879;50.852;15.602;2023-05-19T13:32:55;9.48;;;8.25;;
30048;SDS011;16879;50.852;15.602;2023-05-19T13:35:21;13.48;;;9.50;;
30048;SDS011;16879;50.852;15.602;2023-05-19T13:37:48;12.27;;;9.70;;
30048;SDS011;16879;50.852;15.602;2023-05-19T13:40:34;14.40;;;10.93;;
30048;SDS011;16879;50.852;15.602;2023-05-19T13:43:19;16.00;;;10.75;;
30048;SDS011;16879;50.852;15.602;2023-05-19T13:45:46;14.77;;;10.00;;
30048;SDS011;16879;50.852;15.602;2023-05-19T13:48:42;16.13;;;10.60;;
30048;SDS011;16879;50.852;15.602;2023-05-19T13:51:21;18.42;;;12.15;;
30048;SDS011;16879;50.852;15.602;2023-05-19T13:53:49;21.63;;;13.02;;
30048;SDS011;16879;50.852;15.602;2023-05-19T13:56:15;13.88;;;11.50;;
30048;SDS011;16879;50.852;15.602;2023-05-19T13:58:42;15.27;;;10.95;;
30048;SDS011;16879;50.852;15.602;2023-05-19T14:01:08;14.27;;;10.50;;
30048;SDS011;16879;50.852;15.602;2023-05-19T14:03:36;14.98;;;11.52;;
30048;SDS011;16879;50.852;15.602;2023-05-19T14:06:02;14.45;;;11.07;;
30048;SDS011;16879;50.852;15.602;2023-05-19T14:08:28;13.70;;;11.20;;
30048;SDS011;16879;50.852;15.602;2023-05-19T14:10:54;15.90;;;11.80;;
30048;SDS011;16879;50.852;15.602;2023-05-19T14:13:21;17.73;;;12.95;;
30048;SDS011;16879;50.852;15.602;2023-05-19T14:15:47;20.42;;;14.07;;
30048;SDS011;16879;50.852;15.602;2023-05-19T14:18:13;17.05;;;13.20;;
30048;SDS011;16879;50.852;15.602;2023-05-19T14:20:40;15.10;;;12.63;;
30048;SDS011;16879;50.852;15.602;2023-05-19T14:23:06;16.33;;;12.85;;
30048;SDS011;16879;50.852;15.602;2023-05-19T14:25:32;14.52;;;12.23;;
30048;SDS011;16879;50.852;15.602;2023-05-19T14:27:58;12.98;;;10.60;;
30048;SDS011;16879;50.852;15.602;2023-05-19T14:30:27;14.82;;;11.20;;
30048;SDS011;16879;50.852;15.602;2023-05-19T14:32:54;18.70;;;13.82;;
30048;SDS011;16879;50.852;15.602;2023-05-19T14:35:20;18.95;;;14.30;;
30048;SDS011;16879;50.852;15.602;2023-05-19T14:37:47;21.08;;;14.32;;
30048;SDS011;16879;50.852;15.602;2023-05-19T14:40:13;16.38;;;12.05;;
30048;SDS011;16879;50.852;15.602;2023-05-19T14:42:39;14.23;;;10.23;;
30048;SDS011;16879;50.852;15.602;2023-05-19T14:45:05;13.05;;;10.50;;
30048;SDS011;16879;50.852;15.602;2023-05-19T14:47:31;13.02;;;10.25;;
30048;SDS011;16879;50.852;15.602;2023-05-19T14:49:57;16.13;;;11.43;;